createdAt,value
2019-02-27T00:00:43.962Z,1012.45
2019-02-27T00:01:53.690Z,1012.45
2019-02-27T00:08:13.287Z,1012.48
2019-02-27T00:09:24.517Z,1012.48
2019-02-27T00:17:55.449Z,1012.43
2019-02-27T00:19:06.652Z,1012.45
2019-02-27T00:20:17.875Z,1012.47
2019-02-27T00:21:29.067Z,1012.49
2019-02-27T00:22:40.254Z,1012.48
2019-02-27T00:23:51.441Z,1012.54
2019-02-27T00:25:03.438Z,1012.55
2019-02-27T00:26:14.814Z,1012.52
2019-02-27T00:27:25.507Z,1012.49
2019-02-27T00:28:36.689Z,1012.49
2019-02-27T00:29:47.877Z,1012.48
2019-02-27T00:30:58.557Z,1012.47
2019-02-27T00:32:09.749Z,1012.49
2019-02-27T00:33:24.911Z,1012.45
2019-02-27T00:34:33.089Z,1012.45
2019-02-27T00:35:43.294Z,1012.45
2019-02-27T00:36:54.465Z,1012.36
2019-02-27T00:38:05.650Z,1012.42
2019-02-27T00:39:16.327Z,1012.47
2019-02-27T00:40:27.623Z,1012.45
2019-02-27T00:41:38.300Z,1012.45
2019-02-27T00:42:54.087Z,1012.44
2019-02-27T00:44:01.469Z,1012.45
2019-02-27T00:45:11.962Z,1012.46
2019-02-27T00:46:23.129Z,1012.47
2019-02-27T00:47:34.299Z,1012.49
2019-02-27T00:48:45.618Z,1012.45
2019-02-27T00:49:56.794Z,1012.47
2019-02-27T00:51:09.661Z,1012.42
2019-02-27T00:52:19.165Z,1012.44
2019-02-27T00:53:30.334Z,1012.44
2019-02-27T00:54:41.633Z,1012.46
2019-02-27T00:55:52.801Z,1012.45
2019-02-27T00:57:03.982Z,1012.44
2019-02-27T00:58:14.669Z,1012.46
2019-02-27T00:59:25.830Z,1012.48
2019-02-27T01:00:39.321Z,1012.50
2019-02-27T01:01:49.175Z,1012.54
2019-02-27T01:02:59.853Z,1012.52
2019-02-27T01:04:11.016Z,1012.51
2019-02-27T01:05:22.195Z,1012.47
2019-02-27T01:06:33.360Z,1012.52
2019-02-27T01:07:44.530Z,1012.50
2019-02-27T01:08:55.198Z,1012.52
2019-02-27T01:10:06.371Z,1012.50
2019-02-27T01:11:18.498Z,1012.46
2019-02-27T01:12:28.203Z,1012.47
2019-02-27T01:13:39.365Z,1012.48
2019-02-27T01:14:50.041Z,1012.47
2019-02-27T01:16:01.208Z,1012.49
2019-02-27T01:17:12.378Z,1012.50
2019-02-27T01:18:23.613Z,1012.51
2019-02-27T01:19:38.625Z,1012.54
2019-02-27T01:20:46.955Z,1012.54
2019-02-27T01:21:57.623Z,1012.56
2019-02-27T01:23:10.884Z,1012.52
2019-02-27T01:24:20.454Z,1012.50
2019-02-27T01:25:31.133Z,1012.50
2019-02-27T01:26:42.301Z,1012.47
2019-02-27T01:27:52.968Z,1012.44
2019-02-27T01:29:05.133Z,1012.41
2019-02-27T01:30:15.804Z,1012.47
2019-02-27T01:31:26.979Z,1012.44
2019-02-27T01:32:39.151Z,1012.45
2019-02-27T01:33:50.317Z,1012.44
2019-02-27T01:35:01.624Z,1012.46
2019-02-27T01:36:12.786Z,1012.40
2019-02-27T01:37:23.953Z,1012.36
2019-02-27T01:38:38.085Z,1012.40
2019-02-27T01:39:47.262Z,1012.40
2019-02-27T01:40:58.434Z,1012.37
2019-02-27T01:42:09.614Z,1012.38
2019-02-27T01:43:20.774Z,1012.37
2019-02-27T01:44:31.435Z,1012.33
2019-02-27T01:45:42.099Z,1012.31
2019-02-27T01:46:54.630Z,1012.28
2019-02-27T01:48:03.924Z,1012.23
2019-02-27T01:49:16.134Z,1012.26
2019-02-27T01:50:26.233Z,1012.24
2019-02-27T01:51:36.899Z,1012.24
2019-02-27T01:52:48.051Z,1012.23
2019-02-27T01:53:58.718Z,1012.24
2019-02-27T01:55:09.885Z,1012.24
2019-02-27T01:56:21.044Z,1012.20
2019-02-27T01:57:34.106Z,1012.18
2019-02-27T01:58:44.243Z,1012.20
2019-02-27T01:59:53.542Z,1012.20
2019-02-27T02:01:04.709Z,1012.18
2019-02-27T02:02:15.368Z,1012.19
2019-02-27T02:03:26.031Z,1012.19
2019-02-27T02:04:36.690Z,1012.17
2019-02-27T02:05:47.844Z,1012.18
2019-02-27T02:06:58.507Z,1012.19
2019-02-27T02:08:13.479Z,1012.21
2019-02-27T02:09:21.239Z,1012.19
2019-02-27T02:10:31.615Z,1012.19
2019-02-27T02:11:42.941Z,1012.18
2019-02-27T02:12:53.604Z,1012.17
2019-02-27T02:14:04.767Z,1012.14
2019-02-27T02:15:16.928Z,1012.19
2019-02-27T02:16:27.591Z,1012.15
2019-02-27T02:17:41.008Z,1012.19
2019-02-27T02:18:49.906Z,1012.12
2019-02-27T02:20:01.058Z,1012.08
2019-02-27T02:21:12.208Z,1012.12
2019-02-27T02:22:23.372Z,1012.09
2019-02-27T02:23:34.045Z,1012.11
2019-02-27T02:24:44.704Z,1012.10
2019-02-27T02:25:55.853Z,1012.08
2019-02-27T02:27:08.280Z,1012.07
2019-02-27T02:28:18.165Z,1012.07
2019-02-27T02:29:29.330Z,1012.06
2019-02-27T02:30:40.489Z,1012.04
2019-02-27T02:31:51.640Z,1012.00
2019-02-27T02:33:02.790Z,1012.00
2019-02-27T02:34:13.950Z,1012.01
2019-02-27T02:35:25.108Z,1012.01
2019-02-27T02:36:36.268Z,1012.03
2019-02-27T02:37:47.924Z,1012.00
2019-02-27T02:38:59.082Z,1011.99
2019-02-27T02:40:10.244Z,1012.00
2019-02-27T02:41:21.395Z,1011.97
2019-02-27T02:42:32.056Z,1011.92
2019-02-27T02:43:43.204Z,1011.94
2019-02-27T02:44:57.724Z,1011.92
2019-02-27T02:46:08.853Z,1011.92
2019-02-27T02:47:19.513Z,1011.91
2019-02-27T02:48:27.838Z,1011.89
2019-02-27T02:49:42.023Z,1011.90
2019-02-27T02:50:53.974Z,1011.84
2019-02-27T02:52:04.575Z,1011.85
2019-02-27T02:53:10.594Z,1011.79
2019-02-27T02:54:21.749Z,1011.80
2019-02-27T02:55:32.903Z,1011.83
2019-02-27T02:56:44.068Z,1011.79
2019-02-27T02:57:54.732Z,1011.79
2019-02-27T02:59:05.882Z,1011.78
2019-02-27T03:00:17.045Z,1011.73
2019-02-27T03:01:28.176Z,1011.67
2019-02-27T03:02:38.834Z,1011.66
2019-02-27T03:03:50.003Z,1011.62
2019-02-27T03:05:01.167Z,1011.60
2019-02-27T03:06:11.822Z,1011.61
2019-02-27T03:07:22.974Z,1011.60
2019-02-27T03:08:35.122Z,1011.59
2019-02-27T03:09:46.271Z,1011.59
2019-02-27T03:10:57.409Z,1011.59
2019-02-27T03:12:08.550Z,1011.60
2019-02-27T03:13:19.703Z,1011.59
2019-02-27T03:14:30.853Z,1011.58
2019-02-27T03:15:41.994Z,1011.59
2019-02-27T03:16:53.150Z,1011.55
2019-02-27T03:18:04.296Z,1011.54
2019-02-27T03:19:15.463Z,1011.52
2019-02-27T03:20:26.605Z,1011.50
2019-02-27T03:21:37.747Z,1011.48
2019-02-27T03:22:48.896Z,1011.44
2019-02-27T03:24:00.049Z,1011.45
2019-02-27T03:25:11.212Z,1011.46
2019-02-27T03:26:21.860Z,1011.45
2019-02-27T03:27:33.021Z,1011.45
2019-02-27T03:28:43.666Z,1011.48
2019-02-27T03:29:54.319Z,1011.44
2019-02-27T03:31:04.974Z,1011.45
2019-02-27T03:32:16.107Z,1011.38
2019-02-27T03:33:27.451Z,1011.40
2019-02-27T03:34:47.918Z,1011.36
2019-02-27T03:35:49.042Z,1011.40
2019-02-27T03:36:59.693Z,1011.40
2019-02-27T03:38:10.829Z,1011.35
2019-02-27T03:39:21.640Z,1011.31
2019-02-27T03:40:32.296Z,1011.34
2019-02-27T03:41:43.446Z,1011.31
2019-02-27T03:42:54.103Z,1011.23
2019-02-27T03:44:05.264Z,1011.29
2019-02-27T03:45:16.385Z,1011.26
2019-02-27T03:46:27.611Z,1011.27
2019-02-27T03:47:38.762Z,1011.26
2019-02-27T03:48:49.899Z,1011.26
2019-02-27T03:50:02.040Z,1011.19
2019-02-27T03:51:13.174Z,1011.20
2019-02-27T03:52:24.323Z,1011.21
2019-02-27T03:53:35.467Z,1011.20
2019-02-27T03:54:48.512Z,1011.20
2019-02-27T03:55:57.743Z,1011.23
2019-02-27T03:57:08.406Z,1011.23
2019-02-27T03:58:19.624Z,1011.23
2019-02-27T03:59:30.763Z,1011.27
2019-02-27T04:00:42.149Z,1011.24
2019-02-27T04:01:52.568Z,1011.24
2019-02-27T04:03:03.711Z,1011.25
2019-02-27T04:04:14.857Z,1011.25
2019-02-27T04:05:26.004Z,1011.23
2019-02-27T04:06:36.654Z,1011.22
2019-02-27T04:07:47.796Z,1011.26
2019-02-27T04:08:58.449Z,1011.31
2019-02-27T04:10:09.103Z,1011.31
2019-02-27T04:11:20.247Z,1011.33
2019-02-27T04:12:31.380Z,1011.33
2019-02-27T04:13:42.523Z,1011.33
2019-02-27T04:14:53.661Z,1011.27
2019-02-27T04:16:04.807Z,1011.28
2019-02-27T04:17:15.951Z,1011.26
2019-02-27T04:18:28.391Z,1011.23
2019-02-27T04:19:39.283Z,1011.23
2019-02-27T04:20:50.863Z,1011.27
2019-02-27T04:22:01.082Z,1011.28
2019-02-27T04:23:12.563Z,1011.25
2019-02-27T04:24:22.425Z,1011.24
2019-02-27T04:25:32.959Z,1011.25
2019-02-27T04:26:44.105Z,1011.21
2019-02-27T04:27:55.607Z,1011.18
2019-02-27T04:29:08.405Z,1011.17
2019-02-27T04:30:17.038Z,1011.18
2019-02-27T04:31:30.540Z,1011.15
2019-02-27T04:32:38.811Z,1011.13
2019-02-27T04:33:49.954Z,1011.10
2019-02-27T04:35:00.601Z,1011.10
2019-02-27T04:36:12.824Z,1011.16
2019-02-27T04:37:23.870Z,1011.10
2019-02-27T04:38:35.011Z,1011.13
2019-02-27T04:39:45.668Z,1011.04
2019-02-27T04:40:56.318Z,1011.05
2019-02-27T04:42:06.960Z,1011.05
2019-02-27T04:43:18.101Z,1011.08
2019-02-27T04:44:29.245Z,1011.02
2019-02-27T04:45:40.382Z,1011.01
2019-02-27T04:46:54.807Z,1010.97
2019-02-27T04:48:02.746Z,1010.96
2019-02-27T04:49:13.889Z,1010.99
2019-02-27T04:50:25.033Z,1010.99
2019-02-27T04:51:36.183Z,1010.96
2019-02-27T04:52:47.312Z,1010.98
2019-02-27T04:53:58.445Z,1011.00
2019-02-27T04:55:09.103Z,1010.98
2019-02-27T04:56:23.150Z,1010.95
2019-02-27T04:57:33.737Z,1010.99
2019-02-27T04:58:43.252Z,1011.01
2019-02-27T04:59:53.140Z,1011.00
2019-02-27T05:01:04.285Z,1011.04
2019-02-27T05:02:15.434Z,1011.04
2019-02-27T05:03:28.512Z,1011.03
2019-02-27T05:04:37.697Z,1011.06
2019-02-27T05:05:48.341Z,1011.05
2019-02-27T05:06:59.617Z,1011.02
2019-02-27T05:08:10.750Z,1011.01
2019-02-27T05:09:22.379Z,1011.02
2019-02-27T05:10:33.887Z,1010.99
2019-02-27T05:11:47.493Z,1011.04
2019-02-27T05:12:55.278Z,1011.02
2019-02-27T05:14:05.915Z,1010.99
2019-02-27T05:15:17.047Z,1010.94
2019-02-27T05:16:28.180Z,1010.99
2019-02-27T05:17:39.318Z,1011.06
2019-02-27T05:18:49.949Z,1011.10
2019-02-27T05:20:00.601Z,1011.08
2019-02-27T05:21:11.250Z,1011.08
2019-02-27T05:22:26.162Z,1011.09
2019-02-27T05:23:34.516Z,1011.08
2019-02-27T05:24:45.158Z,1011.06
2019-02-27T05:25:56.379Z,1011.04
2019-02-27T05:27:07.423Z,1011.05
2019-02-27T05:28:18.553Z,1011.07
2019-02-27T05:29:29.685Z,1011.10
2019-02-27T05:30:44.817Z,1011.06
2019-02-27T05:31:53.156Z,1011.07
2019-02-27T05:33:03.080Z,1011.06
2019-02-27T05:34:14.220Z,1011.02
2019-02-27T05:35:25.346Z,1011.01
2019-02-27T05:36:36.483Z,1010.99
2019-02-27T05:37:47.620Z,1010.93
2019-02-27T05:38:58.757Z,1010.92
2019-02-27T05:40:09.888Z,1010.94
2019-02-27T05:41:21.303Z,1010.93
2019-02-27T05:42:32.430Z,1010.96
2019-02-27T05:43:47.691Z,1010.91
2019-02-27T05:44:55.959Z,1010.92
2019-02-27T05:46:05.885Z,1010.91
2019-02-27T05:47:17.017Z,1010.91
2019-02-27T05:48:28.139Z,1010.95
2019-02-27T05:49:39.278Z,1010.90
2019-02-27T05:50:50.413Z,1010.93
2019-02-27T05:52:01.623Z,1010.97
2019-02-27T05:53:12.762Z,1010.90
2019-02-27T05:54:23.887Z,1010.90
2019-02-27T05:55:38.978Z,1010.93
2019-02-27T05:56:47.183Z,1010.93
2019-02-27T05:57:57.283Z,1010.92
2019-02-27T05:59:08.410Z,1010.92
2019-02-27T06:00:19.617Z,1010.86
2019-02-27T06:01:30.748Z,1010.88
2019-02-27T06:02:44.801Z,1010.89
2019-02-27T06:03:53.101Z,1010.88
2019-02-27T06:05:04.155Z,1010.88
2019-02-27T06:06:15.290Z,1010.90
2019-02-27T06:07:26.428Z,1010.94
2019-02-27T06:08:38.602Z,1010.90
2019-02-27T06:09:49.775Z,1010.90
2019-02-27T06:11:00.878Z,1010.93
2019-02-27T06:12:12.012Z,1010.93
2019-02-27T06:13:23.151Z,1010.93
2019-02-27T06:14:34.273Z,1010.91
2019-02-27T06:15:45.406Z,1010.88
2019-02-27T06:16:56.539Z,1010.93
2019-02-27T06:18:07.668Z,1010.89
2019-02-27T06:19:18.790Z,1010.92
2019-02-27T06:20:29.924Z,1010.89
2019-02-27T06:21:41.053Z,1010.87
2019-02-27T06:22:52.194Z,1010.85
2019-02-27T06:24:03.318Z,1010.83
2019-02-27T06:25:21.939Z,1010.86
2019-02-27T06:26:26.417Z,1010.87
2019-02-27T06:27:39.444Z,1010.89
2019-02-27T06:28:48.699Z,1010.88
2019-02-27T06:29:59.862Z,1010.88
2019-02-27T06:31:10.954Z,1010.90
2019-02-27T06:32:22.101Z,1010.90
2019-02-27T06:33:33.235Z,1010.89
2019-02-27T06:34:44.356Z,1010.92
2019-02-27T06:35:55.628Z,1010.88
2019-02-27T06:37:06.778Z,1010.93
2019-02-27T06:38:17.916Z,1010.91
2019-02-27T06:39:29.049Z,1010.91
2019-02-27T06:40:42.318Z,1010.93
2019-02-27T06:41:51.300Z,1010.92
2019-02-27T06:43:02.436Z,1010.93
2019-02-27T06:44:13.620Z,1010.95
2019-02-27T06:45:24.757Z,1010.92
2019-02-27T06:46:35.879Z,1010.92
2019-02-27T06:47:47.012Z,1010.86
2019-02-27T06:48:58.150Z,1010.91
2019-02-27T06:50:09.280Z,1010.90
2019-02-27T06:51:20.403Z,1010.91
2019-02-27T06:52:31.622Z,1010.91
2019-02-27T06:53:42.766Z,1010.91
2019-02-27T06:54:53.895Z,1010.90
2019-02-27T06:56:05.024Z,1010.89
2019-02-27T06:57:16.143Z,1010.88
2019-02-27T06:58:27.280Z,1010.91
2019-02-27T06:59:38.429Z,1010.91
2019-02-27T07:00:49.632Z,1010.91
2019-02-27T07:02:00.768Z,1010.91
2019-02-27T07:03:11.892Z,1010.90
2019-02-27T07:04:23.030Z,1010.92
2019-02-27T07:05:34.168Z,1010.89
2019-02-27T07:06:45.293Z,1010.86
2019-02-27T07:07:56.424Z,1010.88
2019-02-27T07:09:11.352Z,1010.88
2019-02-27T07:10:20.018Z,1010.85
2019-02-27T07:11:29.920Z,1010.90
2019-02-27T07:12:41.045Z,1010.87
2019-02-27T07:13:52.195Z,1010.82
2019-02-27T07:15:03.317Z,1010.84
2019-02-27T07:16:14.441Z,1010.82
2019-02-27T07:17:25.619Z,1010.84
2019-02-27T07:18:41.510Z,1010.81
2019-02-27T07:19:49.709Z,1010.75
2019-02-27T07:20:59.288Z,1010.81
2019-02-27T07:22:12.512Z,1010.79
2019-02-27T07:23:23.606Z,1010.80
2019-02-27T07:24:33.745Z,1010.77
2019-02-27T07:25:43.628Z,1010.81
2019-02-27T07:26:54.754Z,1010.82
2019-02-27T07:28:08.449Z,1010.78
2019-02-27T07:29:21.591Z,1010.77
2019-02-27T07:30:27.653Z,1010.81
2019-02-27T07:31:38.292Z,1010.78
2019-02-27T07:32:49.430Z,1010.82
2019-02-27T07:34:00.552Z,1010.80
2019-02-27T07:35:11.694Z,1010.85
2019-02-27T07:36:22.826Z,1010.77
2019-02-27T07:37:33.954Z,1010.78
2019-02-27T07:38:45.099Z,1010.83
2019-02-27T07:39:56.234Z,1010.79
2019-02-27T07:41:07.370Z,1010.82
2019-02-27T07:42:18.501Z,1010.83
2019-02-27T07:43:29.629Z,1010.83
2019-02-27T07:44:42.231Z,1010.82
2019-02-27T07:45:51.889Z,1010.81
2019-02-27T07:47:03.016Z,1010.80
2019-02-27T07:48:14.144Z,1010.81
2019-02-27T07:49:25.284Z,1010.80
2019-02-27T07:50:36.440Z,1010.77
2019-02-27T07:51:48.566Z,1010.79
2019-02-27T07:52:59.743Z,1010.79
2019-02-27T07:54:11.343Z,1010.80
2019-02-27T07:55:23.640Z,1010.82
2019-02-27T07:56:33.614Z,1010.80
2019-02-27T07:57:44.744Z,1010.82
2019-02-27T07:58:55.877Z,1010.80
2019-02-27T08:00:07.024Z,1010.84
2019-02-27T08:01:18.152Z,1010.84
2019-02-27T08:02:29.285Z,1010.86
2019-02-27T08:03:44.810Z,1010.84
2019-02-27T08:04:54.418Z,1010.87
2019-02-27T08:06:03.268Z,1010.82
2019-02-27T08:07:14.404Z,1010.82
2019-02-27T08:08:25.624Z,1010.88
2019-02-27T08:09:36.775Z,1010.85
2019-02-27T08:10:47.916Z,1010.89
2019-02-27T08:11:59.056Z,1010.88
2019-02-27T08:13:09.690Z,1010.86
2019-02-27T08:14:20.834Z,1010.87
2019-02-27T08:15:31.984Z,1010.82
2019-02-27T08:16:42.626Z,1010.87
2019-02-27T08:17:57.437Z,1010.82
2019-02-27T08:19:04.900Z,1010.85
2019-02-27T08:20:20.251Z,1010.92
2019-02-27T08:21:27.183Z,1010.88
2019-02-27T08:22:38.331Z,1010.92
2019-02-27T08:23:49.629Z,1010.93
2019-02-27T08:25:00.785Z,1010.91
2019-02-27T08:26:11.939Z,1010.90
2019-02-27T08:27:23.091Z,1010.92
2019-02-27T08:28:33.738Z,1010.91
2019-02-27T08:29:44.883Z,1010.84
2019-02-27T08:30:56.036Z,1010.89
2019-02-27T08:32:07.172Z,1010.89
2019-02-27T08:33:18.326Z,1010.93
2019-02-27T08:34:29.475Z,1010.93
2019-02-27T08:35:40.620Z,1010.96
2019-02-27T08:36:51.271Z,1011.01
2019-02-27T08:38:02.987Z,1011.00
2019-02-27T08:39:13.620Z,1010.98
2019-02-27T08:40:25.341Z,1011.00
2019-02-27T08:41:35.908Z,1010.95
2019-02-27T08:42:47.255Z,1010.93
2019-02-27T08:43:58.398Z,1010.92
2019-02-27T08:45:19.004Z,1010.89
2019-02-27T08:46:20.772Z,1010.87
2019-02-27T08:47:33.586Z,1010.88
2019-02-27T08:48:43.074Z,1010.83
2019-02-27T08:49:57.758Z,1010.80
2019-02-27T08:51:08.328Z,1010.79
2019-02-27T08:52:16.358Z,1010.74
2019-02-27T08:53:27.174Z,1010.72
2019-02-27T08:54:38.334Z,1010.67
2019-02-27T08:55:49.628Z,1010.70
2019-02-27T08:57:00.283Z,1010.65
2019-02-27T08:58:11.456Z,1010.62
2019-02-27T08:59:22.600Z,1010.60
2019-02-27T09:00:33.767Z,1010.58
2019-02-27T09:01:44.928Z,1010.55
2019-02-27T09:02:56.097Z,1010.53
2019-02-27T09:04:11.555Z,1010.50
2019-02-27T09:05:20.083Z,1010.45
2019-02-27T09:06:28.603Z,1010.44
2019-02-27T09:07:39.764Z,1010.46
2019-02-27T09:08:51.927Z,1010.44
2019-02-27T09:10:03.076Z,1010.48
2019-02-27T09:11:14.770Z,1010.45
2019-02-27T09:12:25.391Z,1010.41
2019-02-27T09:13:36.551Z,1010.40
2019-02-27T09:14:47.713Z,1010.35
2019-02-27T09:15:58.397Z,1010.33
2019-02-27T09:17:09.629Z,1010.30
2019-02-27T09:18:22.839Z,1010.28
2019-02-27T09:19:31.443Z,1010.29
2019-02-27T09:20:42.113Z,1010.26
2019-02-27T09:21:53.286Z,1010.29
2019-02-27T09:23:04.455Z,1010.30
2019-02-27T09:24:15.625Z,1010.32
2019-02-27T09:25:26.304Z,1010.24
2019-02-27T09:26:37.470Z,1010.26
2019-02-27T09:27:48.646Z,1010.26
2019-02-27T09:28:59.810Z,1010.23
2019-02-27T09:30:10.475Z,1010.19
2019-02-27T09:31:21.653Z,1010.13
2019-02-27T09:32:32.329Z,1010.20
2019-02-27T09:33:43.618Z,1010.15
2019-02-27T09:34:57.035Z,1010.16
2019-02-27T09:36:08.017Z,1010.11
2019-02-27T09:37:17.755Z,1010.12
2019-02-27T09:38:27.986Z,1010.12
2019-02-27T09:39:39.161Z,1010.15
2019-02-27T09:40:50.326Z,1010.12
2019-02-27T09:42:02.005Z,1010.08
2019-02-27T09:43:12.682Z,1010.04
2019-02-27T09:44:23.867Z,1010.06
2019-02-27T09:45:35.475Z,1010.04
2019-02-27T09:46:46.233Z,1010.03
2019-02-27T09:47:59.586Z,1009.97
2019-02-27T09:49:08.097Z,1009.96
2019-02-27T09:50:19.275Z,1009.93
2019-02-27T09:51:30.462Z,1009.91
2019-02-27T09:52:41.640Z,1009.85
2019-02-27T09:53:52.816Z,1009.75
2019-02-27T09:55:03.996Z,1009.75
2019-02-27T09:56:15.176Z,1009.69
2019-02-27T09:57:27.145Z,1009.65
2019-02-27T09:58:37.621Z,1009.57
2019-02-27T09:59:51.143Z,1009.56
2019-02-27T10:01:02.903Z,1009.55
2019-02-27T10:02:12.466Z,1009.50
2019-02-27T10:03:21.883Z,1009.48
2019-02-27T10:04:33.067Z,1009.42
2019-02-27T10:05:44.254Z,1009.36
2019-02-27T10:06:55.444Z,1009.33
2019-02-27T10:08:07.567Z,1009.31
2019-02-27T10:09:17.322Z,1009.26
2019-02-27T10:10:28.502Z,1009.27
2019-02-27T10:11:39.691Z,1009.24
2019-02-27T10:12:50.886Z,1009.19
2019-02-27T10:14:02.081Z,1009.16
2019-02-27T10:15:12.767Z,1009.09
2019-02-27T10:16:23.629Z,1009.03
2019-02-27T10:17:34.330Z,1008.98
2019-02-27T10:18:45.016Z,1008.92
2019-02-27T10:20:01.419Z,1008.84
2019-02-27T10:21:09.465Z,1008.87
2019-02-27T10:22:20.191Z,1008.83
2019-02-27T10:23:31.152Z,1008.84
2019-02-27T10:24:40.983Z,1008.84
2019-02-27T10:25:52.192Z,1008.83
2019-02-27T10:27:03.393Z,1008.80
2019-02-27T10:28:14.096Z,1008.77
2019-02-27T10:29:25.295Z,1008.72
2019-02-27T10:30:36.491Z,1008.69
2019-02-27T10:31:47.677Z,1008.66
2019-02-27T10:32:58.392Z,1008.61
2019-02-27T10:34:09.651Z,1008.59
2019-02-27T10:35:20.839Z,1008.53
2019-02-27T10:36:32.035Z,1008.54
2019-02-27T10:37:43.326Z,1008.46
2019-02-27T10:38:54.449Z,1008.40
2019-02-27T10:40:05.150Z,1008.37
2019-02-27T10:41:16.350Z,1008.28
2019-02-27T10:42:27.057Z,1008.22
2019-02-27T10:43:37.777Z,1008.16
2019-02-27T10:44:48.983Z,1008.14
2019-02-27T10:46:00.188Z,1008.09
2019-02-27T10:47:11.409Z,1008.05
2019-02-27T10:48:22.618Z,1007.96
2019-02-27T10:49:34.821Z,1007.95
2019-02-27T10:50:46.032Z,1007.94
2019-02-27T10:51:57.246Z,1007.86
2019-02-27T10:53:08.640Z,1007.83
2019-02-27T10:54:19.851Z,1007.81
2019-02-27T10:55:31.054Z,1007.79
2019-02-27T10:56:42.272Z,1007.73
2019-02-27T10:57:53.634Z,1007.72
2019-02-27T10:59:04.867Z,1007.60
2019-02-27T11:00:16.059Z,1007.53
2019-02-27T11:01:27.280Z,1007.44
2019-02-27T11:02:38.007Z,1007.39
2019-02-27T11:03:49.222Z,1007.31
2019-02-27T11:04:59.948Z,1007.31
2019-02-27T11:06:11.163Z,1007.22
2019-02-27T11:07:22.390Z,1007.15
2019-02-27T11:08:33.624Z,1007.08
2019-02-27T11:09:44.840Z,1006.99
2019-02-27T11:10:56.058Z,1006.97
2019-02-27T11:12:07.284Z,1006.93
2019-02-27T11:13:18.508Z,1006.85
2019-02-27T11:14:32.146Z,1006.79
2019-02-27T11:15:42.179Z,1006.78
2019-02-27T11:16:52.181Z,1006.75
2019-02-27T11:18:05.700Z,1006.71
2019-02-27T11:19:16.642Z,1006.74
2019-02-27T11:20:26.874Z,1006.65
2019-02-27T11:21:38.101Z,1006.63
2019-02-27T11:22:49.333Z,1006.60
2019-02-27T11:24:00.083Z,1006.50
2019-02-27T11:25:11.321Z,1006.47
2019-02-27T11:26:22.559Z,1006.37
2019-02-27T11:27:36.379Z,1006.29
2019-02-27T11:28:47.541Z,1006.18
2019-02-27T11:29:59.533Z,1006.11
2019-02-27T11:31:08.400Z,1006.16
2019-02-27T11:32:17.309Z,1006.27
2019-02-27T11:33:32.551Z,1006.09
2019-02-27T11:34:39.799Z,1005.93
2019-02-27T11:35:51.050Z,1005.48
2019-02-27T11:37:04.264Z,1004.84
2019-02-27T11:38:13.625Z,1004.34
2019-02-27T11:39:24.391Z,1003.81
2019-02-27T11:40:35.643Z,1003.39
2019-02-27T11:41:48.491Z,1003.06
2019-02-27T11:42:57.183Z,1002.99
2019-02-27T11:44:08.490Z,1002.45
2019-02-27T11:45:23.795Z,1002.28
2019-02-27T11:46:31.176Z,1002.30
2019-02-27T11:47:47.715Z,1002.16
2019-02-27T11:48:53.953Z,1001.98
2019-02-27T11:50:05.402Z,1001.86
2019-02-27T11:51:17.551Z,1001.83
2019-02-27T11:52:28.926Z,1001.69
2019-02-27T11:53:40.420Z,1001.51
2019-02-27T11:54:52.001Z,1001.36
2019-02-27T11:56:03.619Z,1001.26
2019-02-27T11:57:15.234Z,1001.19
2019-02-27T11:58:26.881Z,1001.27
2019-02-27T11:59:38.538Z,1001.18
2019-02-27T12:00:50.228Z,1001.01
2019-02-27T12:02:01.929Z,1001.02
2019-02-27T12:03:14.665Z,1000.89
2019-02-27T12:04:26.416Z,1000.75
2019-02-27T12:05:38.199Z,1000.68
2019-02-27T12:06:49.997Z,1000.50
2019-02-27T12:08:01.816Z,1000.41
2019-02-27T12:09:13.650Z,1000.32
2019-02-27T12:10:25.631Z,1000.23
2019-02-27T12:11:37.521Z,1000.29
2019-02-27T12:12:49.457Z,1000.39
2019-02-27T12:14:01.355Z,1000.38
2019-02-27T12:15:13.281Z,1000.42
2019-02-27T12:16:25.200Z,1000.46
2019-02-27T12:17:37.129Z,1000.49
2019-02-27T12:18:49.061Z,1000.45
2019-02-27T12:20:01.025Z,1000.39
2019-02-27T12:21:12.999Z,1000.35
2019-02-27T12:22:24.978Z,1000.35
2019-02-27T12:23:36.534Z,1000.48
2019-02-27T12:24:50.365Z,1000.48
2019-02-27T12:26:02.505Z,1000.46
2019-02-27T12:27:24.358Z,1000.47
2019-02-27T12:28:25.727Z,1000.53
2019-02-27T12:29:37.772Z,1000.50
2019-02-27T12:30:49.824Z,1000.46
2019-02-27T12:32:02.483Z,1000.44
2019-02-27T12:33:13.995Z,1000.31
2019-02-27T12:34:26.089Z,1000.28
2019-02-27T12:35:38.161Z,1000.33
2019-02-27T12:36:52.560Z,1000.33
2019-02-27T12:38:06.830Z,1000.45
2019-02-27T12:39:15.536Z,1000.36
2019-02-27T12:40:27.009Z,1000.20
2019-02-27T12:41:39.126Z,1000.14
2019-02-27T12:42:51.235Z,1000.70
2019-02-27T12:44:03.348Z,1000.71
2019-02-27T12:45:15.477Z,1000.81
2019-02-27T12:46:27.097Z,1000.82
2019-02-27T12:47:40.650Z,1000.87
2019-02-27T12:48:50.870Z,1000.84
2019-02-27T12:50:03.016Z,1000.83
2019-02-27T12:51:15.186Z,1000.76
2019-02-27T12:52:27.324Z,1000.58
2019-02-27T12:53:39.477Z,1000.50
2019-02-27T12:54:51.678Z,1000.52
2019-02-27T12:56:03.846Z,1000.51
2019-02-27T12:57:17.647Z,1000.48
2019-02-27T12:58:28.179Z,1000.52
2019-02-27T12:59:40.521Z,1000.49
2019-02-27T13:00:52.700Z,1000.56
2019-02-27T13:02:08.342Z,1000.74
2019-02-27T13:03:17.377Z,1000.71
2019-02-27T13:04:29.052Z,1000.74
2019-02-27T13:05:40.737Z,1000.70
2019-02-27T13:06:52.420Z,1000.54
2019-02-27T13:08:04.597Z,1000.42
2019-02-27T13:09:16.769Z,1000.31
2019-02-27T13:10:33.179Z,1000.29
2019-02-27T13:11:41.640Z,1000.37
2019-02-27T13:12:52.820Z,1000.41
2019-02-27T13:14:05.011Z,1000.42
2019-02-27T13:15:16.702Z,1000.48
2019-02-27T13:16:28.895Z,1000.51
2019-02-27T13:17:40.602Z,1000.60
2019-02-27T13:18:52.797Z,1000.75
2019-02-27T13:20:04.488Z,1001.02
2019-02-27T13:21:20.123Z,1001.30
2019-02-27T13:22:29.176Z,1001.62
2019-02-27T13:23:42.348Z,1001.90
2019-02-27T13:24:53.239Z,1002.17
2019-02-27T13:26:04.906Z,1002.40
2019-02-27T13:27:17.028Z,1002.61
2019-02-27T13:28:29.108Z,1002.83
2019-02-27T13:29:41.156Z,1002.96
2019-02-27T13:30:53.200Z,1003.10
2019-02-27T13:32:05.213Z,1003.23
2019-02-27T13:33:17.189Z,1003.33
2019-02-27T13:34:29.125Z,1003.47
2019-02-27T13:35:41.045Z,1003.56
2019-02-27T13:36:52.931Z,1003.64
2019-02-27T13:38:04.809Z,1003.70
2019-02-27T13:39:16.655Z,1003.59
2019-02-27T13:40:29.625Z,1003.38
2019-02-27T13:41:42.461Z,1002.97
2019-02-27T13:42:53.715Z,1002.75
2019-02-27T13:44:05.019Z,1002.55
2019-02-27T13:45:16.799Z,1002.31
2019-02-27T13:46:28.568Z,1002.12
2019-02-27T13:47:40.337Z,1001.95
2019-02-27T13:48:51.587Z,1001.76
2019-02-27T13:50:03.035Z,1001.59
2019-02-27T13:51:14.780Z,1001.53
2019-02-27T13:52:26.532Z,1001.56
2019-02-27T13:53:38.313Z,1001.47
2019-02-27T13:54:50.090Z,1001.38
2019-02-27T13:56:01.892Z,1001.25
2019-02-27T13:57:13.711Z,1001.23
2019-02-27T13:58:25.054Z,1001.12
2019-02-27T13:59:36.910Z,1001.03
2019-02-27T14:00:48.762Z,1001.01
2019-02-27T14:02:03.863Z,1001.02
2019-02-27T14:03:12.673Z,1001.00
2019-02-27T14:04:23.942Z,1000.97
2019-02-27T14:05:36.342Z,1000.86
2019-02-27T14:06:47.776Z,1000.91
2019-02-27T14:07:59.708Z,1000.89
2019-02-27T14:09:11.649Z,1000.69
2019-02-27T14:10:23.618Z,1000.55
2019-02-27T14:11:35.586Z,1000.43
2019-02-27T14:12:47.643Z,1000.34
2019-02-27T14:14:00.539Z,1000.20
2019-02-27T14:15:11.659Z,1000.10
2019-02-27T14:16:23.682Z,999.94
2019-02-27T14:17:35.703Z,999.92
2019-02-27T14:18:49.983Z,999.87
2019-02-27T14:19:59.758Z,999.77
2019-02-27T14:21:11.788Z,999.85
2019-02-27T14:22:23.824Z,999.86
2019-02-27T14:23:35.870Z,999.87
2019-02-27T14:24:47.914Z,999.88
2019-02-27T14:26:05.615Z,999.88
2019-02-27T14:27:14.567Z,999.89
2019-02-27T14:28:25.077Z,999.88
2019-02-27T14:29:36.618Z,999.85
2019-02-27T14:30:48.662Z,999.76
2019-02-27T14:32:00.699Z,999.81
2019-02-27T14:33:12.740Z,999.90
2019-02-27T14:34:27.165Z,999.92
2019-02-27T14:35:36.813Z,999.88